createdAt,value
2018-06-22T00:00:18.456Z,94915.05
2018-06-22T00:02:44.860Z,94918.80
2018-06-22T00:05:11.196Z,94917.16
2018-06-22T00:07:37.571Z,94907.83
2018-06-22T00:10:03.958Z,94908.12
2018-06-22T00:12:30.302Z,94903.07
2018-06-22T00:14:56.683Z,94900.66
2018-06-22T00:17:22.989Z,94899.11
2018-06-22T00:19:49.355Z,94903.24
2018-06-22T00:22:15.675Z,94892.23
2018-06-22T00:24:41.991Z,94893.03
2018-06-22T00:27:08.312Z,94870.64
2018-06-22T00:29:34.635Z,94889.69
2018-06-22T00:32:00.979Z,94889.63
2018-06-22T00:34:27.356Z,94884.11
2018-06-22T00:36:53.780Z,94886.52
2018-06-22T00:39:20.119Z,94885.81
2018-06-22T00:41:46.443Z,94878.56
2018-06-22T00:44:12.831Z,94872.13
2018-06-22T00:46:39.264Z,94874.89
2018-06-22T00:49:05.643Z,94876.16
2018-06-22T00:51:31.976Z,94870.05
2018-06-22T00:53:58.453Z,94866.13
2018-06-22T00:56:24.848Z,94866.70
2018-06-22T00:58:51.231Z,94860.61
2018-06-22T01:01:17.759Z,94856.32
2018-06-22T01:03:44.156Z,94849.16
2018-06-22T01:06:10.478Z,94849.05
2018-06-22T01:08:36.821Z,94855.38
2018-06-22T01:11:03.314Z,94861.59
2018-06-22T01:13:29.642Z,94851.85
2018-06-22T01:15:56.043Z,94861.91
2018-06-22T01:18:22.355Z,94856.39
2018-06-22T01:20:48.883Z,94848.97
2018-06-22T01:23:15.289Z,94858.88
2018-06-22T01:25:41.613Z,94846.61
2018-06-22T01:28:07.923Z,94854.97
2018-06-22T01:30:34.348Z,94854.02
2018-06-22T01:33:00.927Z,94854.96
2018-06-22T01:35:27.291Z,94848.53
2018-06-22T01:37:53.651Z,94852.31
2018-06-22T01:40:20.180Z,94853.12
2018-06-22T01:42:46.676Z,94863.41
2018-06-22T01:45:13.055Z,94868.04
2018-06-22T01:47:39.435Z,94874.29
2018-06-22T01:50:05.777Z,94878.14
2018-06-22T01:52:32.108Z,94869.44
2018-06-22T01:54:58.590Z,94871.70
2018-06-22T01:57:25.201Z,94875.77
2018-06-22T01:59:51.588Z,94887.02
2018-06-22T02:02:17.925Z,94887.44
2018-06-22T02:04:44.287Z,94890.02
2018-06-22T02:07:10.774Z,94883.47
2018-06-22T02:09:37.159Z,94880.09
2018-06-22T02:12:03.497Z,94892.89
2018-06-22T02:14:29.860Z,94891.30
2018-06-22T02:16:56.294Z,94895.27
2018-06-22T02:19:22.615Z,94888.30
2018-06-22T02:21:49.001Z,94902.02
2018-06-22T02:24:15.379Z,94893.09
2018-06-22T02:26:41.828Z,94896.30
2018-06-22T02:29:08.185Z,94892.95
2018-06-22T02:31:34.544Z,94897.59
2018-06-22T02:34:00.939Z,94904.75
2018-06-22T02:36:27.259Z,94902.94
2018-06-22T02:38:53.627Z,94896.71
2018-06-22T02:41:19.932Z,94900.98
2018-06-22T02:43:46.346Z,94894.61
2018-06-22T02:46:12.707Z,94907.53
2018-06-22T02:48:39.084Z,94903.03
2018-06-22T02:51:05.400Z,94908.44
2018-06-22T02:53:31.723Z,94909.42
2018-06-22T02:55:58.075Z,94911.02
2018-06-22T02:58:24.421Z,94900.92
2018-06-22T03:00:50.736Z,94905.70
2018-06-22T03:03:17.051Z,94916.61
2018-06-22T03:05:43.416Z,94915.17
2018-06-22T03:08:09.919Z,94921.78
2018-06-22T03:10:36.272Z,94920.40
2018-06-22T03:13:02.662Z,94912.59
2018-06-22T03:15:29.019Z,94915.17
2018-06-22T03:17:55.379Z,94918.55
2018-06-22T03:20:21.699Z,94917.97
2018-06-22T03:22:48.024Z,94916.62
2018-06-22T03:25:14.426Z,94918.08
2018-06-22T03:27:40.904Z,94907.98
2018-06-22T03:30:07.361Z,94917.83
2018-06-22T03:32:33.828Z,94911.18
2018-06-22T03:35:00.154Z,94917.41
2018-06-22T03:37:26.480Z,94919.58
2018-06-22T03:39:52.964Z,94917.67
2018-06-22T03:42:19.300Z,94914.98
2018-06-22T03:44:45.735Z,94905.98
2018-06-22T03:47:12.099Z,94911.68
2018-06-22T03:49:38.420Z,94914.20
2018-06-22T03:52:04.788Z,94910.22
2018-06-22T03:54:31.354Z,94910.95
2018-06-22T03:56:57.716Z,94909.75
2018-06-22T03:59:24.230Z,94902.02
2018-06-22T04:01:50.604Z,94916.05
2018-06-22T04:04:17.005Z,94917.48
2018-06-22T04:06:43.376Z,94898.20
2018-06-22T04:09:09.761Z,94910.05
2018-06-22T04:11:36.097Z,94915.99
2018-06-22T04:14:02.408Z,94910.06
2018-06-22T04:16:28.866Z,94909.97
2018-06-22T04:18:55.220Z,94903.40
2018-06-22T04:21:21.600Z,94898.89
2018-06-22T04:23:47.953Z,94901.30
2018-06-22T04:26:14.336Z,94903.03
2018-06-22T04:28:40.785Z,94891.38
2018-06-22T04:31:07.169Z,94881.96
2018-06-22T04:33:33.509Z,94893.27
2018-06-22T04:35:59.893Z,94891.88
2018-06-22T04:38:26.280Z,94894.11
2018-06-22T04:40:52.640Z,94896.52
2018-06-22T04:43:19.046Z,94895.67
2018-06-22T04:45:45.430Z,94886.80
2018-06-22T04:48:11.964Z,94892.23
2018-06-22T04:50:38.299Z,94888.27
2018-06-22T04:53:04.650Z,94874.55
2018-06-22T04:55:31.029Z,94882.81
2018-06-22T04:57:57.395Z,94874.39
2018-06-22T05:00:23.744Z,94892.63
2018-06-22T05:02:50.091Z,94884.34
2018-06-22T05:05:16.578Z,94887.54
2018-06-22T05:07:42.902Z,94882.41
2018-06-22T05:10:09.310Z,94866.41
2018-06-22T05:12:35.686Z,94855.78
2018-06-22T05:15:02.068Z,94871.55
2018-06-22T05:17:28.409Z,94878.11
2018-06-22T05:19:54.756Z,94874.09
2018-06-22T05:22:21.141Z,94870.98
2018-06-22T05:24:47.477Z,94869.27
2018-06-22T05:27:13.823Z,94862.45
2018-06-22T05:29:40.205Z,94852.70
2018-06-22T05:32:06.613Z,94856.91
2018-06-22T05:34:33.205Z,94863.86
2018-06-22T05:36:59.609Z,94851.75
2018-06-22T05:39:25.950Z,94848.75
2018-06-22T05:41:52.295Z,94857.39
2018-06-22T05:44:18.770Z,94853.25
2018-06-22T05:46:45.128Z,94857.67
2018-06-22T05:49:11.508Z,94849.02
2018-06-22T05:51:37.835Z,94843.53
2018-06-22T05:54:04.313Z,94840.89
2018-06-22T05:56:30.716Z,94852.30
2018-06-22T05:58:57.099Z,94849.52
2018-06-22T06:01:23.508Z,94853.52
2018-06-22T06:03:49.852Z,94847.12
2018-06-22T06:06:16.175Z,94855.97
2018-06-22T06:08:42.668Z,94853.72
2018-06-22T06:11:09.265Z,94835.90
2018-06-22T06:13:35.685Z,94846.09
2018-06-22T06:16:02.085Z,94834.74
2018-06-22T06:18:28.871Z,94833.16
2018-06-22T06:20:55.809Z,94829.30
2018-06-22T06:23:22.284Z,94835.11
2018-06-22T06:25:48.628Z,94821.91
2018-06-22T06:28:15.026Z,94830.80
2018-06-22T06:30:41.504Z,94836.00
2018-06-22T06:33:07.959Z,94832.25
2018-06-22T06:35:34.405Z,94815.50
2018-06-22T06:38:00.872Z,94820.23
2018-06-22T06:40:27.512Z,94811.57
2018-06-22T06:42:54.000Z,94817.47
2018-06-22T06:45:20.393Z,94814.04
2018-06-22T06:47:46.728Z,94813.12
2018-06-22T06:50:13.148Z,94797.34
2018-06-22T06:52:39.543Z,94806.23
2018-06-22T06:55:06.032Z,94806.35
2018-06-22T06:57:32.388Z,94800.77
2018-06-22T06:59:58.793Z,94803.04
2018-06-22T07:02:25.200Z,94803.58
2018-06-22T07:04:51.567Z,94801.53
2018-06-22T07:07:17.935Z,94803.89
2018-06-22T07:09:44.322Z,94802.94
2018-06-22T07:12:10.670Z,94798.11
2018-06-22T07:14:37.146Z,94800.70
2018-06-22T07:17:03.504Z,94769.80
2018-06-22T07:19:29.924Z,94802.42
2018-06-22T07:21:56.352Z,94794.95
2018-06-22T07:24:22.704Z,94804.02
2018-06-22T07:26:49.090Z,94797.97
2018-06-22T07:29:15.417Z,94809.14
2018-06-22T07:31:41.808Z,94805.09
2018-06-22T07:34:08.291Z,94800.56
2018-06-22T07:36:34.629Z,94792.19
2018-06-22T07:39:01.089Z,94807.73
2018-06-22T07:41:27.733Z,94793.84
2018-06-22T07:43:54.638Z,94792.08
2018-06-22T07:46:21.003Z,94785.09
2018-06-22T07:48:47.481Z,94783.24
2018-06-22T07:51:13.922Z,94784.32
2018-06-22T07:53:40.348Z,94789.36
2018-06-22T07:56:06.776Z,94784.14
2018-06-22T07:58:33.129Z,94778.83
2018-06-22T08:00:59.491Z,94781.73
2018-06-22T08:03:25.952Z,94766.84
2018-06-22T08:05:52.391Z,94775.13
2018-06-22T08:08:18.840Z,94773.59
2018-06-22T08:10:45.186Z,94769.66
2018-06-22T08:13:11.705Z,94773.31
2018-06-22T08:15:38.974Z,94765.72
2018-06-22T08:18:05.408Z,94752.41
2018-06-22T08:20:31.811Z,94775.19
2018-06-22T08:22:58.291Z,94773.66
2018-06-22T08:25:24.652Z,94765.52
2018-06-22T08:27:51.012Z,94774.84
2018-06-22T08:30:17.381Z,94758.58
2018-06-22T08:32:43.828Z,94763.46
2018-06-22T08:35:10.227Z,94768.36
2018-06-22T08:37:36.588Z,94766.64
2018-06-22T08:40:02.942Z,94762.53
2018-06-22T08:42:29.406Z,94765.65
2018-06-22T08:44:55.768Z,94759.00
2018-06-22T08:47:22.130Z,94768.59
2018-06-22T08:49:48.491Z,94753.35
2018-06-22T08:52:14.961Z,94760.19
2018-06-22T08:54:41.424Z,94749.77
2018-06-22T08:57:07.825Z,94752.64
2018-06-22T08:59:34.177Z,94735.27
2018-06-22T09:02:00.579Z,94744.30
2018-06-22T09:06:48.177Z,94734.70
2018-06-22T09:09:14.617Z,94736.22
2018-06-22T09:11:41.260Z,94726.52
2018-06-22T09:14:07.640Z,94730.29
2018-06-22T09:16:34.203Z,94714.86
2018-06-22T09:19:00.924Z,94717.28
2018-06-22T09:21:27.451Z,94722.05
2018-06-22T09:23:54.018Z,94700.34
2018-06-22T09:26:20.472Z,94714.52
2018-06-22T09:28:46.924Z,94713.03
2018-06-22T09:31:13.524Z,94700.05
2018-06-22T09:33:40.134Z,94696.45
2018-06-22T09:36:06.774Z,94686.38
2018-06-22T09:38:33.437Z,94696.24
2018-06-22T09:40:59.899Z,94694.28
2018-06-22T09:43:26.354Z,94694.90
2018-06-22T09:45:52.929Z,94679.27
2018-06-22T09:48:19.384Z,94678.86
2018-06-22T09:50:45.828Z,94671.25
2018-06-22T09:53:12.302Z,94671.02
2018-06-22T09:55:38.673Z,94662.09
2018-06-22T09:58:05.218Z,94663.51
2018-06-22T10:00:31.594Z,94657.53
2018-06-22T10:02:58.039Z,94645.09
2018-06-22T10:05:24.405Z,94645.66
2018-06-22T10:07:50.840Z,94648.03
2018-06-22T10:10:17.250Z,94625.02
2018-06-22T10:12:43.720Z,94638.72
2018-06-22T10:15:10.194Z,94635.37
2018-06-22T10:17:36.635Z,94630.56
2018-06-22T10:20:03.099Z,94640.83
2018-06-22T10:22:29.572Z,94635.75
2018-06-22T10:24:56.126Z,94628.33
2018-06-22T10:27:22.899Z,94637.38
2018-06-22T10:29:49.371Z,94640.21
2018-06-22T10:32:15.933Z,94632.34
2018-06-22T10:34:42.682Z,94623.78
2018-06-22T10:37:09.163Z,94625.64
2018-06-22T10:39:39.017Z,94615.51
2018-06-22T10:42:05.357Z,94614.67
2018-06-22T10:44:31.856Z,94614.77
2018-06-22T10:46:58.457Z,94616.94
2018-06-22T10:52:07.446Z,94608.75
2018-06-22T10:54:38.784Z,94599.46
2018-06-22T10:57:06.581Z,94600.95
2018-06-22T11:04:48.851Z,94590.75
2018-06-22T11:07:16.098Z,94580.46
2018-06-22T11:09:48.923Z,94581.23
2018-06-22T11:12:17.676Z,94583.13
2018-06-22T11:14:46.031Z,94581.98
2018-06-22T11:17:13.573Z,94575.39
2018-06-22T11:22:17.864Z,94561.17
2018-06-22T11:24:51.326Z,94553.81
2018-06-22T11:27:17.953Z,94571.91
2018-06-22T11:29:44.784Z,94567.31
2018-06-22T11:32:19.543Z,94561.39
2018-06-22T11:34:47.090Z,94568.84
2018-06-22T11:37:14.357Z,94589.13
2018-06-22T11:39:45.535Z,94617.66
2018-06-22T11:42:12.132Z,94617.38
2018-06-22T11:44:42.213Z,94618.38
2018-06-22T11:47:11.931Z,94632.83
2018-06-22T11:49:41.597Z,94640.02
2018-06-22T11:52:12.145Z,94637.44
2018-06-22T11:57:13.334Z,94654.58
2018-06-22T11:59:42.440Z,94674.12
2018-06-22T12:02:13.218Z,94681.74
2018-06-22T12:04:43.942Z,94658.55
2018-06-22T12:07:15.581Z,94670.66
2018-06-22T12:12:41.242Z,94680.16
2018-06-22T12:15:13.197Z,94683.92
2018-06-22T12:17:40.624Z,94692.39
2018-06-22T12:22:42.524Z,94706.09
2018-06-22T12:25:09.546Z,94717.98
2018-06-22T12:27:38.320Z,94723.68
2018-06-22T12:30:08.240Z,94717.86
2018-06-22T12:35:13.907Z,94730.11
2018-06-22T12:37:46.122Z,94710.98
2018-06-22T12:40:26.006Z,94700.91
2018-06-22T12:42:55.807Z,94699.38
2018-06-22T12:45:22.592Z,94699.44
2018-06-22T12:47:50.935Z,94689.95
2018-06-22T12:50:18.296Z,94671.95
2018-06-22T12:52:45.292Z,94668.32
2018-06-22T12:55:13.086Z,94665.84
2018-06-22T12:57:39.982Z,94673.95
2018-06-22T13:03:37.292Z,94678.50
2018-06-22T13:06:06.129Z,94679.31
2018-06-22T13:08:32.670Z,94667.08
2018-06-22T13:10:59.240Z,94667.78
2018-06-22T13:13:25.708Z,94674.22
2018-06-22T13:15:55.358Z,94665.44
2018-06-22T13:18:21.766Z,94669.06
2018-06-22T13:20:48.244Z,94658.31
2018-06-22T13:23:16.347Z,94648.79
2018-06-22T13:25:43.155Z,94652.81
2018-06-22T13:28:09.783Z,94642.87
2018-06-22T13:30:36.732Z,94641.30
2018-06-22T13:33:03.317Z,94646.16
2018-06-22T13:35:30.834Z,94649.77
2018-06-22T13:37:57.594Z,94658.36
2018-06-22T13:40:23.967Z,94650.24
2018-06-22T13:42:50.618Z,94649.70
2018-06-22T13:45:17.102Z,94650.13
2018-06-22T13:47:43.584Z,94654.05
2018-06-22T13:50:10.011Z,94652.60
2018-06-22T13:52:37.857Z,94637.23
2018-06-22T13:55:04.355Z,94649.36
2018-06-22T13:57:30.726Z,94628.19
2018-06-22T13:59:57.116Z,94651.16
2018-06-22T14:02:23.592Z,94660.54
2018-06-22T14:04:49.944Z,94668.41
2018-06-22T14:07:16.286Z,94666.13
2018-06-22T14:09:43.299Z,94648.48
2018-06-22T14:12:09.748Z,94640.06
2018-06-22T14:14:36.298Z,94642.83
2018-06-22T14:17:03.029Z,94636.02
2018-06-22T14:19:29.407Z,94622.38
2018-06-22T14:21:56.747Z,94610.55
2018-06-22T14:24:23.167Z,94605.78
2018-06-22T14:26:49.508Z,94614.67
2018-06-22T14:29:16.004Z,94615.89
2018-06-22T14:31:42.412Z,94622.88
2018-06-22T14:34:08.877Z,94632.00
2018-06-22T14:36:35.506Z,94628.13
2018-06-22T14:39:02.180Z,94626.07
2018-06-22T14:41:28.574Z,94617.08
2018-06-22T14:43:54.943Z,94610.31
2018-06-22T14:46:21.396Z,94616.25
2018-06-22T14:48:47.784Z,94608.67
2018-06-22T14:51:14.165Z,94598.55
2018-06-22T14:53:40.531Z,94606.17
2018-06-22T14:56:06.951Z,94598.44
2018-06-22T14:58:33.385Z,94592.68
2018-06-22T15:00:59.772Z,94596.09
2018-06-22T15:03:26.200Z,94601.48
2018-06-22T15:05:52.611Z,94599.02
2018-06-22T15:08:18.935Z,94591.66
2018-06-22T15:10:45.287Z,94589.55
2018-06-22T15:13:12.168Z,94583.31
2018-06-22T15:15:38.622Z,94581.55
2018-06-22T15:18:05.162Z,94589.84
2018-06-22T15:20:31.586Z,94609.81
2018-06-22T15:22:57.970Z,94619.99
2018-06-22T15:25:24.298Z,94638.39
2018-06-22T15:27:50.703Z,94660.95
2018-06-22T15:30:17.046Z,94688.34
2018-06-22T15:32:43.371Z,94691.62
2018-06-22T15:35:09.729Z,94683.43
2018-06-22T15:37:36.138Z,94675.70
2018-06-22T15:40:02.562Z,94688.03
2018-06-22T15:42:28.921Z,94701.03
2018-06-22T15:44:55.301Z,94704.00
2018-06-22T15:47:21.666Z,94707.66
2018-06-22T15:49:47.996Z,94711.57
2018-06-22T15:52:14.331Z,94713.66
2018-06-22T15:54:40.703Z,94719.86
2018-06-22T15:57:07.097Z,94717.55
2018-06-22T15:59:33.446Z,94729.63
2018-06-22T16:01:59.842Z,94737.39
2018-06-22T16:04:26.215Z,94735.34
2018-06-22T16:06:52.578Z,94735.75
2018-06-22T16:09:18.940Z,94739.15
2018-06-22T16:11:45.277Z,94741.26
2018-06-22T16:14:11.657Z,94732.56
2018-06-22T16:16:37.982Z,94729.24
2018-06-22T16:19:04.431Z,94730.69
2018-06-22T16:21:30.902Z,94728.44
2018-06-22T16:23:57.319Z,94717.81
2018-06-22T16:26:23.676Z,94715.88
2018-06-22T16:28:50.011Z,94717.88
2018-06-22T16:31:16.382Z,94719.09
2018-06-22T16:33:42.745Z,94711.75
2018-06-22T16:36:09.121Z,94701.22
2018-06-22T16:38:35.558Z,94696.23
2018-06-22T16:41:01.931Z,94696.58
2018-06-22T16:43:28.277Z,94694.75
2018-06-22T16:45:54.641Z,94687.06
2018-06-22T16:48:21.055Z,94693.59
2018-06-22T16:50:47.485Z,94679.50
2018-06-22T16:53:13.836Z,94669.62
2018-06-22T16:55:40.163Z,94673.66
2018-06-22T16:58:06.539Z,94685.20
2018-06-22T17:00:32.965Z,94686.59
2018-06-22T17:02:59.303Z,94678.27
2018-06-22T17:05:25.692Z,94677.64
2018-06-22T17:07:52.032Z,94675.34
2018-06-22T17:10:18.460Z,94687.86
2018-06-22T17:12:44.856Z,94685.61
2018-06-22T17:15:11.175Z,94684.58
2018-06-22T17:17:37.502Z,94689.34
2018-06-22T17:20:03.875Z,94686.18
2018-06-22T17:22:30.191Z,94685.42
2018-06-22T17:24:56.524Z,94680.69
2018-06-22T17:27:22.848Z,94675.80
2018-06-22T17:29:49.167Z,94675.93
2018-06-22T17:32:15.543Z,94683.94
2018-06-22T17:34:41.879Z,94685.30
2018-06-22T17:37:08.276Z,94684.12
2018-06-22T17:39:34.615Z,94690.38
2018-06-22T17:42:00.984Z,94695.42
2018-06-22T17:44:27.317Z,94705.26
2018-06-22T17:46:53.642Z,94699.52
2018-06-22T17:49:19.974Z,94698.52
2018-06-22T17:51:46.315Z,94708.82
2018-06-22T17:54:12.675Z,94713.02
2018-06-22T17:56:39.005Z,94711.37
2018-06-22T17:59:05.397Z,94715.92
2018-06-22T18:01:31.723Z,94710.59
2018-06-22T18:03:58.057Z,94709.17
2018-06-22T18:06:24.433Z,94719.08
2018-06-22T18:08:50.765Z,94719.27
2018-06-22T18:11:17.186Z,94717.22
2018-06-22T18:13:43.511Z,94721.47
2018-06-22T18:16:09.894Z,94719.45
2018-06-22T18:18:36.264Z,94718.41
2018-06-22T18:21:02.580Z,94722.07
2018-06-22T18:23:28.909Z,94724.44
2018-06-22T18:25:55.404Z,94726.48
2018-06-22T18:28:21.725Z,94723.39
2018-06-22T18:30:48.055Z,94728.81
2018-06-22T18:33:14.435Z,94736.32
2018-06-22T18:35:40.795Z,94738.49
2018-06-22T18:38:07.116Z,94748.08
2018-06-22T18:40:33.447Z,94742.97
2018-06-22T18:42:59.764Z,94747.89
2018-06-22T18:45:26.127Z,94754.06
2018-06-22T18:47:52.472Z,94770.88
2018-06-22T18:50:18.854Z,94778.01
2018-06-22T18:52:45.221Z,94780.80
2018-06-22T18:55:11.551Z,94776.84
2018-06-22T18:57:37.988Z,94781.95
2018-06-22T19:00:04.358Z,94774.08
2018-06-22T19:02:30.693Z,94779.66
2018-06-22T19:04:57.008Z,94781.68
2018-06-22T19:07:23.409Z,94776.33
2018-06-22T19:09:49.809Z,94789.84
2018-06-22T19:12:16.161Z,94793.20
2018-06-22T19:14:42.489Z,94789.05
2018-06-22T19:17:08.865Z,94775.85
2018-06-22T19:19:35.859Z,94787.27
2018-06-22T19:22:02.184Z,94778.09
2018-06-22T19:24:28.549Z,94784.23
2018-06-22T19:26:54.876Z,94787.06
2018-06-22T19:29:21.253Z,94783.74
2018-06-22T19:31:47.610Z,94791.38
2018-06-22T19:34:13.974Z,94783.58
2018-06-22T19:36:40.331Z,94792.84
2018-06-22T19:39:06.655Z,94794.20
2018-06-22T19:41:33.128Z,94809.09
2018-06-22T19:43:59.501Z,94815.02
2018-06-22T19:46:25.828Z,94818.50
2018-06-22T19:48:52.165Z,94816.70
2018-06-22T19:51:18.530Z,94814.12
2018-06-22T19:53:44.865Z,94822.70
2018-06-22T19:56:11.201Z,94822.61
2018-06-22T19:58:37.572Z,94821.34
2018-06-22T20:01:03.939Z,94816.98
2018-06-22T20:03:30.265Z,94817.31
2018-06-22T20:05:56.581Z,94820.05
2018-06-22T20:08:22.924Z,94818.62
2018-06-22T20:10:49.256Z,94817.59
2018-06-22T20:13:15.587Z,94816.84
2018-06-22T20:15:41.913Z,94814.61
2018-06-22T20:18:08.251Z,94820.81
2018-06-22T20:20:34.567Z,94815.00
2018-06-22T20:23:00.941Z,94822.36
2018-06-22T20:25:27.313Z,94816.72
2018-06-22T20:27:53.691Z,94817.95
2018-06-22T20:30:20.055Z,94825.14
2018-06-22T20:32:46.516Z,94827.61
2018-06-22T20:35:12.860Z,94832.64
2018-06-22T20:37:39.244Z,94835.89
2018-06-22T20:40:05.667Z,94839.42
2018-06-22T20:42:32.010Z,94846.43
2018-06-22T20:44:58.381Z,94852.16
2018-06-22T20:47:24.819Z,94855.08
2018-06-22T20:49:51.150Z,94859.62
2018-06-22T20:52:17.498Z,94859.95
2018-06-22T20:54:43.840Z,94863.09
2018-06-22T20:57:10.196Z,94868.80
2018-06-22T20:59:36.571Z,94861.17
2018-06-22T21:02:02.926Z,94874.52
2018-06-22T21:04:29.290Z,94883.12
2018-06-22T21:06:55.617Z,94887.98
2018-06-22T21:09:22.015Z,94890.94
2018-06-22T21:11:48.399Z,94895.22
2018-06-22T21:14:14.773Z,94896.25
2018-06-22T21:16:41.093Z,94896.31
2018-06-22T21:19:07.507Z,94902.56
2018-06-22T21:21:33.844Z,94908.00
2018-06-22T21:24:00.209Z,94915.13
2018-06-22T21:26:26.548Z,94921.12
2018-06-22T21:28:52.894Z,94913.78
2018-06-22T21:31:19.255Z,94916.60
2018-06-22T21:33:45.578Z,94917.30
2018-06-22T21:36:11.920Z,94915.54
2018-06-22T21:38:38.246Z,94919.09
2018-06-22T21:41:04.635Z,94921.94
2018-06-22T21:43:30.963Z,94926.22
2018-06-22T21:45:57.308Z,94929.27
2018-06-22T21:48:23.699Z,94935.47
2018-06-22T21:50:50.078Z,94937.70
2018-06-22T21:53:16.437Z,94939.63
2018-06-22T21:55:42.771Z,94946.03
2018-06-22T21:58:09.196Z,94942.86
2018-06-22T22:00:35.631Z,94950.52
2018-06-22T22:03:01.989Z,94944.33
2018-06-22T22:05:28.314Z,94944.27
2018-06-22T22:07:54.642Z,94945.20
2018-06-22T22:10:20.981Z,94943.23
2018-06-22T22:12:47.330Z,94945.41
2018-06-22T22:15:13.684Z,94957.09
2018-06-22T22:17:39.994Z,94955.73
2018-06-22T22:20:06.513Z,94954.76
2018-06-22T22:22:32.881Z,94953.11
2018-06-22T22:24:59.221Z,94945.42
2018-06-22T22:27:25.588Z,94948.21
2018-06-22T22:29:51.906Z,94954.31
2018-06-22T22:32:18.279Z,94952.96
2018-06-22T22:34:44.610Z,94954.40
2018-06-22T22:37:10.972Z,94951.56
2018-06-22T22:39:37.316Z,94967.38
2018-06-22T22:42:03.640Z,94974.09
2018-06-22T22:44:30.035Z,94979.25
2018-06-22T22:46:56.397Z,94976.67
2018-06-22T22:49:22.826Z,94979.45
2018-06-22T22:51:49.134Z,94981.00
2018-06-22T22:54:15.463Z,94976.30
2018-06-22T22:56:41.792Z,94969.13
2018-06-22T22:59:08.154Z,94962.09
2018-06-22T23:01:34.588Z,94974.69
2018-06-22T23:04:00.921Z,94970.42
2018-06-22T23:06:27.307Z,94960.98
2018-06-22T23:08:53.740Z,94966.14
2018-06-22T23:11:20.081Z,94966.06
2018-06-22T23:16:18.708Z,94978.19
2018-06-22T23:18:45.037Z,94989.00
2018-06-22T23:21:11.394Z,94992.71
2018-06-22T23:23:37.775Z,94983.78
2018-06-22T23:26:04.234Z,94981.97
2018-06-22T23:28:30.558Z,94977.28
2018-06-22T23:30:56.997Z,94980.27
2018-06-22T23:33:23.361Z,94980.06
2018-06-22T23:35:49.696Z,94986.00
2018-06-22T23:38:16.011Z,94990.94
2018-06-22T23:40:42.361Z,94992.34
2018-06-22T23:43:08.802Z,94998.91
2018-06-22T23:45:35.255Z,94993.41
2018-06-22T23:48:01.576Z,94998.88
2018-06-22T23:50:27.955Z,95000.11
2018-06-22T23:52:54.276Z,94997.45
2018-06-22T23:55:20.679Z,94995.67
2018-06-22T23:57:47.031Z,95008.59
